This is the latest recevied weather packets stored in our database for station/object F4WDE-10. If no packets are shown the sender has not sent any weather packets the latest 10 day(s).
| Time | Temp. | Humidity | Pressure | Rain* | Wind** | Luminosity | Snow |
|---|---|---|---|---|---|---|---|
| 1777265794 | 14.44° C | 94% | 964 hPa | - | - | - | - |
| 1777264893 | 14.44° C | 97% | 964 hPa | - | - | - | - |
| 1777263992 | 14.44° C | 96% | 964 hPa | - | - | - | - |
| 1777263091 | 14.44° C | 95% | 964 hPa | - | - | - | - |
| 1777262190 | 15° C | 95% | 964 hPa | - | - | - | - |
| 1777261289 | 15° C | 93% | 964 hPa | - | - | - | - |
| 1777260387 | 15° C | 94% | 964 hPa | - | - | - | - |
| 1777259486 | 15.56° C | 92% | 964 hPa | - | - | - | - |
| 1777258585 | 15.56° C | 92% | 964 hPa | - | - | - | - |
| 1777257684 | 16.11° C | 89% | 964 hPa | - | - | - | - |
| 1777256783 | 16.11° C | 89% | 964 hPa | - | - | - | - |
| 1777255882 | 16.67° C | 85% | 964 hPa | - | - | - | - |
| 1777254981 | 16.67° C | 87% | 964 hPa | - | - | - | - |
| 1777254079 | 16.67° C | 87% | 964 hPa | - | - | - | - |
| 1777253178 | 16.67° C | 89% | 964 hPa | - | - | - | - |
| 1777252277 | 16.11° C | 91% | 964 hPa | - | - | - | - |
| 1777251376 | 16.11° C | 91% | 965 hPa | - | - | - | - |
| 1777250475 | 16.11° C | 92% | 965 hPa | - | - | - | - |
| 1777249574 | 15.56° C | 93% | 965 hPa | - | - | - | - |
| 1777248673 | 15° C | 94% | 965 hPa | - | - | - | - |
| 1777247772 | 15° C | 94% | 965 hPa | - | - | - | - |
| 1777246871 | 15.56° C | 93% | 965 hPa | - | - | - | - |
| 1777245970 | 15.56° C | 91% | 965 hPa | - | - | - | - |
| 1777245069 | 15.56° C | 88% | 965 hPa | - | - | - | - |
| 1777244167 | 15.56° C | 90% | 965 hPa | - | - | - | - |
* Rain since midnight (hover to see other rain measurements)
** Current wind speed in m/s (hover to see current wind gust speed)